createdAt,value
2023-01-23T00:01:29.197Z,-6.20
2023-01-23T00:03:56.640Z,-6.30
2023-01-23T00:06:24.236Z,-6.50
2023-01-23T00:08:51.201Z,-6.60
2023-01-23T00:11:21.111Z,-6.40
2023-01-23T00:13:48.588Z,-6.40
2023-01-23T00:16:18.913Z,-6.50
2023-01-23T00:18:46.765Z,-6.50
2023-01-23T00:21:17.953Z,-6.40
2023-01-23T00:23:47.065Z,-6.30
2023-01-23T00:26:17.267Z,-6.20
2023-01-23T00:28:45.096Z,-6.30
2023-01-23T00:31:18.839Z,-6.40
2023-01-23T00:33:46.362Z,-6.50
2023-01-23T00:36:14.452Z,-6.70
2023-01-23T00:38:42.082Z,-6.70
2023-01-23T00:41:08.982Z,-6.50
2023-01-23T00:43:35.674Z,-6.40
2023-01-23T00:46:02.533Z,-6.30
2023-01-23T00:48:29.274Z,-6.50
2023-01-23T00:50:56.219Z,-6.50
2023-01-23T00:53:23.390Z,-6.40
2023-01-23T00:55:50.203Z,-6.40
2023-01-23T00:58:16.923Z,-6.40
2023-01-23T01:00:43.672Z,-6.40
2023-01-23T01:03:10.540Z,-6.40
2023-01-23T01:05:37.441Z,-6.50
2023-01-23T01:08:05.359Z,-6.80
2023-01-23T01:10:32.994Z,-7.10
2023-01-23T01:13:01.977Z,-7.50
2023-01-23T01:15:29.495Z,-7.50
2023-01-23T01:17:57.039Z,-7.40
2023-01-23T01:20:26.052Z,-7.30
2023-01-23T01:22:54.265Z,-7.30
2023-01-23T01:25:21.477Z,-7.00
2023-01-23T01:27:48.459Z,-6.90
2023-01-23T01:30:19.632Z,-6.80
2023-01-23T01:32:46.611Z,-6.80
2023-01-23T01:35:13.567Z,-6.60
2023-01-23T01:37:41.869Z,-6.80
2023-01-23T01:40:20.231Z,-6.80
2023-01-23T01:43:00.499Z,-6.70
2023-01-23T01:46:01.378Z,-6.70
2023-01-23T01:48:52.090Z,-6.60
2023-01-23T01:51:24.620Z,-6.50
2023-01-23T01:53:59.003Z,-6.70
2023-01-23T01:56:26.823Z,-6.80
2023-01-23T01:58:54.749Z,-6.90
2023-01-23T02:01:21.504Z,-7.00
2023-01-23T02:03:50.919Z,-6.90
2023-01-23T02:06:18.082Z,-6.80
2023-01-23T02:08:49.027Z,-6.60
2023-01-23T02:11:18.482Z,-6.50
2023-01-23T02:13:46.090Z,-6.40
2023-01-23T02:16:18.479Z,-6.30
2023-01-23T02:18:49.240Z,-6.30
2023-01-23T02:21:20.283Z,-6.30
2023-01-23T02:24:42.625Z,-6.20
2023-01-23T02:27:09.338Z,-6.00
2023-01-23T02:29:48.382Z,-5.90
2023-01-23T02:32:15.138Z,-5.80
2023-01-23T02:34:42.714Z,-5.80
2023-01-23T02:37:09.608Z,-5.80
2023-01-23T02:39:37.418Z,-5.70
2023-01-23T02:42:05.793Z,-5.80
2023-01-23T02:44:32.707Z,-5.80
2023-01-23T02:47:08.649Z,-5.70
2023-01-23T02:49:35.391Z,-5.70
2023-01-23T02:52:03.333Z,-5.70
2023-01-23T02:54:30.036Z,-5.70
2023-01-23T02:56:57.220Z,-5.60
2023-01-23T02:59:42.744Z,-5.60
2023-01-23T03:02:10.044Z,-5.60
2023-01-23T03:04:36.854Z,-5.60
2023-01-23T03:07:03.719Z,-5.50
2023-01-23T03:09:30.891Z,-5.50
2023-01-23T03:11:57.734Z,-5.40
2023-01-23T03:14:25.733Z,-5.30
2023-01-23T03:16:54.029Z,-5.20
2023-01-23T03:19:23.520Z,-5.10
2023-01-23T03:21:51.282Z,-5.10
2023-01-23T03:24:19.011Z,-5.00
2023-01-23T03:26:46.952Z,-5.00
2023-01-23T03:29:42.350Z,-5.00
2023-01-23T03:32:10.196Z,-5.00
2023-01-23T03:34:37.082Z,-4.90
2023-01-23T03:37:04.229Z,-4.90
2023-01-23T03:39:49.494Z,-4.90
2023-01-23T03:42:16.178Z,-4.90
2023-01-23T03:44:43.100Z,-4.90
2023-01-23T03:47:09.875Z,-4.90
2023-01-23T03:49:36.901Z,-4.90
2023-01-23T03:52:03.704Z,-4.90
2023-01-23T03:54:30.551Z,-4.90
2023-01-23T03:56:57.288Z,-4.80
2023-01-23T03:59:24.011Z,-4.80
2023-01-23T04:01:50.690Z,-4.80
2023-01-23T04:04:17.364Z,-4.80
2023-01-23T04:06:44.028Z,-4.70
2023-01-23T04:09:10.784Z,-4.60
2023-01-23T04:11:37.511Z,-4.60
2023-01-23T04:14:04.201Z,-4.50
2023-01-23T04:16:31.116Z,-4.40
2023-01-23T04:18:57.949Z,-4.40
2023-01-23T04:21:25.449Z,-4.30
2023-01-23T04:23:52.165Z,-4.30
2023-01-23T04:26:18.876Z,-4.30
2023-01-23T04:28:45.680Z,-4.20
2023-01-23T04:31:12.509Z,-4.20
2023-01-23T04:33:39.261Z,-4.10
2023-01-23T04:36:06.792Z,-4.10
2023-01-23T04:38:34.832Z,-4.10
2023-01-23T04:41:01.993Z,-4.00
2023-01-23T04:43:28.673Z,-4.00
2023-01-23T04:45:56.240Z,-4.00
2023-01-23T04:48:23.405Z,-4.00
2023-01-23T04:50:50.949Z,-4.00
2023-01-23T04:53:17.881Z,-4.00
2023-01-23T04:55:47.430Z,-4.00
2023-01-23T04:58:14.208Z,-4.00
2023-01-23T05:00:40.884Z,-3.90
2023-01-23T05:03:07.575Z,-3.80
2023-01-23T05:05:35.173Z,-3.80
2023-01-23T05:08:02.017Z,-3.80
2023-01-23T05:10:28.728Z,-3.80
2023-01-23T05:12:55.613Z,-3.80
2023-01-23T05:15:22.405Z,-3.70
2023-01-23T05:17:49.704Z,-3.70
2023-01-23T05:20:16.618Z,-3.60
2023-01-23T05:22:52.423Z,-3.60
2023-01-23T05:25:24.447Z,-3.60
2023-01-23T05:27:51.702Z,-3.60
2023-01-23T05:30:20.953Z,-3.60
2023-01-23T05:32:48.186Z,-3.50
2023-01-23T05:35:15.699Z,-3.50
2023-01-23T05:37:42.456Z,-3.60
2023-01-23T05:40:13.287Z,-3.60
2023-01-23T05:42:40.087Z,-3.60
2023-01-23T05:45:07.445Z,-3.50
2023-01-23T05:47:34.436Z,-3.50
2023-01-23T05:50:01.232Z,-3.50
2023-01-23T05:52:28.209Z,-3.40
2023-01-23T05:54:54.927Z,-3.40
2023-01-23T05:57:21.906Z,-3.30
2023-01-23T05:59:48.733Z,-3.30
2023-01-23T06:02:15.619Z,-3.30
2023-01-23T06:04:42.485Z,-3.30
2023-01-23T06:07:17.247Z,-3.20
2023-01-23T06:09:43.986Z,-3.30
2023-01-23T06:12:11.073Z,-3.20
2023-01-23T06:14:37.725Z,-3.20
2023-01-23T06:17:05.004Z,-3.20
2023-01-23T06:19:31.803Z,-3.20
2023-01-23T06:21:58.574Z,-3.20
2023-01-23T06:24:25.473Z,-3.20
2023-01-23T06:26:52.168Z,-3.20
2023-01-23T06:29:19.093Z,-3.10
2023-01-23T06:31:47.546Z,-3.10
2023-01-23T06:34:15.228Z,-3.10
2023-01-23T06:36:42.448Z,-3.00
2023-01-23T06:39:13.550Z,-3.00
2023-01-23T06:41:40.247Z,-3.00
2023-01-23T06:44:07.777Z,-2.90
2023-01-23T06:46:34.965Z,-2.90
2023-01-23T06:49:02.544Z,-2.90
2023-01-23T06:51:30.649Z,-2.90
2023-01-23T06:53:57.301Z,-2.90
2023-01-23T06:56:24.255Z,-2.90
2023-01-23T06:58:51.062Z,-2.80
2023-01-23T07:01:19.375Z,-2.80
2023-01-23T07:03:46.211Z,-2.80
2023-01-23T07:06:14.347Z,-2.80
2023-01-23T07:08:42.039Z,-2.70
2023-01-23T07:11:09.815Z,-2.70
2023-01-23T07:13:36.791Z,-2.70
2023-01-23T07:16:03.915Z,-2.70
2023-01-23T07:18:30.679Z,-2.70
2023-01-23T07:20:57.454Z,-2.70
2023-01-23T07:23:24.250Z,-2.70
2023-01-23T07:25:51.272Z,-2.60
2023-01-23T07:28:17.968Z,-2.60
2023-01-23T07:30:44.918Z,-2.60
2023-01-23T07:33:12.415Z,-2.60
2023-01-23T07:35:39.755Z,-2.60
2023-01-23T07:38:06.444Z,-2.60
2023-01-23T07:40:33.175Z,-2.60
2023-01-23T07:42:59.936Z,-2.50
2023-01-23T07:45:26.611Z,-2.50
2023-01-23T07:47:53.344Z,-2.50
2023-01-23T07:50:20.254Z,-2.50
2023-01-23T07:52:47.299Z,-2.50
2023-01-23T07:55:14.124Z,-2.40
2023-01-23T07:57:40.880Z,-2.40
2023-01-23T08:00:10.876Z,-2.40
2023-01-23T08:02:38.290Z,-2.40
2023-01-23T08:05:05.782Z,-2.30
2023-01-23T08:07:32.782Z,-2.30
2023-01-23T08:10:00.131Z,-2.30
2023-01-23T08:12:26.791Z,-2.30
2023-01-23T08:14:53.444Z,-2.30
2023-01-23T08:17:21.058Z,-2.30
2023-01-23T08:19:47.743Z,-2.20
2023-01-23T08:22:14.439Z,-2.20
2023-01-23T08:24:41.197Z,-2.10
2023-01-23T08:27:08.037Z,-2.10
2023-01-23T08:29:34.974Z,-2.10
2023-01-23T08:32:01.916Z,-2.00
2023-01-23T08:34:28.779Z,-1.90
2023-01-23T08:36:55.434Z,-1.90
2023-01-23T08:39:22.119Z,-1.90
2023-01-23T08:41:48.806Z,-1.80
2023-01-23T08:44:15.449Z,-1.80
2023-01-23T08:46:43.122Z,-1.80
2023-01-23T08:49:11.292Z,-1.70
2023-01-23T08:51:38.562Z,-1.70
2023-01-23T08:54:06.119Z,-1.70
2023-01-23T08:56:32.852Z,-1.70
2023-01-23T08:58:59.491Z,-1.60
2023-01-23T09:01:27.060Z,-1.50
2023-01-23T09:03:54.394Z,-1.50
2023-01-23T09:06:22.498Z,-1.40
2023-01-23T09:08:49.708Z,-1.40
2023-01-23T09:11:17.229Z,-1.20
2023-01-23T09:13:46.366Z,-1.20
2023-01-23T09:16:13.199Z,-1.30
2023-01-23T09:18:39.976Z,-1.20
2023-01-23T09:21:12.802Z,-1.10
2023-01-23T09:23:39.657Z,-1.00
2023-01-23T09:26:08.902Z,-0.90
2023-01-23T09:28:37.130Z,-0.90
2023-01-23T09:31:07.221Z,-0.80
2023-01-23T09:33:34.836Z,-0.70
2023-01-23T09:36:02.207Z,-0.60
2023-01-23T09:38:28.919Z,-0.50
2023-01-23T09:40:58.723Z,-0.50
2023-01-23T09:43:31.502Z,-0.50
2023-01-23T09:46:10.907Z,-0.50
2023-01-23T09:48:40.412Z,-0.70
2023-01-23T09:51:16.832Z,-0.80
2023-01-23T09:53:43.679Z,-0.60
2023-01-23T09:56:44.611Z,-0.60
2023-01-23T09:59:29.749Z,-0.40
2023-01-23T10:01:56.606Z,-0.40
2023-01-23T10:04:23.614Z,-0.40
2023-01-23T10:07:06.282Z,-0.30
2023-01-23T10:09:51.659Z,-0.50
2023-01-23T10:12:54.855Z,-0.50
2023-01-23T10:15:31.277Z,-0.60
2023-01-23T10:18:42.695Z,-0.60
2023-01-23T10:21:25.162Z,-0.70
2023-01-23T10:24:23.600Z,-0.70
2023-01-23T10:26:50.545Z,-0.60
2023-01-23T10:29:36.468Z,-0.50
2023-01-23T10:32:06.233Z,-0.50
2023-01-23T10:34:52.068Z,-0.40
2023-01-23T10:37:36.885Z,-0.30
2023-01-23T10:40:11.308Z,-0.20
2023-01-23T10:42:38.232Z,-0.10
2023-01-23T10:45:06.570Z,-0.10
2023-01-23T10:47:55.098Z,-0.10
2023-01-23T10:50:40.712Z,0.10
2023-01-23T10:53:16.814Z,0.30
2023-01-23T10:55:45.714Z,0.40
2023-01-23T10:58:31.132Z,0.40
2023-01-23T11:00:58.220Z,0.40
2023-01-23T11:03:32.517Z,0.50
2023-01-23T11:06:07.170Z,0.50
2023-01-23T11:08:38.770Z,0.50
2023-01-23T11:11:14.514Z,0.70
2023-01-23T11:13:45.858Z,0.70
2023-01-23T11:16:21.986Z,0.70
2023-01-23T11:19:22.503Z,0.70
2023-01-23T11:21:56.595Z,0.70
2023-01-23T11:24:40.280Z,0.70
2023-01-23T11:27:24.248Z,0.70
2023-01-23T11:30:08.452Z,0.70
2023-01-23T11:32:57.655Z,0.80
2023-01-23T11:35:46.301Z,0.80
2023-01-23T11:38:19.784Z,0.70
2023-01-23T11:40:51.700Z,0.60
2023-01-23T11:43:18.935Z,0.50
2023-01-23T11:46:12.807Z,0.50
2023-01-23T11:49:12.719Z,0.50
2023-01-23T11:51:49.894Z,0.50
2023-01-23T11:54:50.591Z,0.50
2023-01-23T11:57:38.201Z,0.50
2023-01-23T12:00:23.604Z,0.60
2023-01-23T12:03:15.043Z,0.60
2023-01-23T12:06:10.261Z,0.60
2023-01-23T12:09:12.141Z,0.60
2023-01-23T12:12:16.572Z,0.60
2023-01-23T12:15:17.280Z,0.70
2023-01-23T12:18:17.806Z,0.70
2023-01-23T12:21:03.160Z,0.80
2023-01-23T12:24:03.459Z,0.80
2023-01-23T12:26:32.480Z,0.90
2023-01-23T12:29:35.730Z,0.80
2023-01-23T12:32:28.458Z,0.70
2023-01-23T12:34:55.114Z,0.70
2023-01-23T12:37:40.349Z,0.70
2023-01-23T12:40:22.789Z,0.80
2023-01-23T12:43:09.151Z,0.80
2023-01-23T12:45:41.525Z,0.80
2023-01-23T12:48:13.676Z,0.90
2023-01-23T12:50:56.495Z,1.00
2023-01-23T12:53:24.022Z,1.00
2023-01-23T12:56:07.794Z,0.90
2023-01-23T12:58:37.267Z,0.90
2023-01-23T13:01:16.603Z,0.80
2023-01-23T13:03:58.527Z,0.80
2023-01-23T13:06:44.259Z,0.80
2023-01-23T13:09:42.229Z,0.70
2023-01-23T13:12:21.819Z,0.60
2023-01-23T13:15:14.311Z,0.60
2023-01-23T13:17:58.227Z,0.60
2023-01-23T13:20:48.730Z,0.60
2023-01-23T13:23:36.583Z,0.60
2023-01-23T13:26:15.645Z,0.60
2023-01-23T13:28:57.233Z,0.60
2023-01-23T13:31:47.181Z,0.60
2023-01-23T13:34:17.248Z,0.60
2023-01-23T13:36:45.927Z,0.50
2023-01-23T13:39:19.754Z,0.50
2023-01-23T13:41:47.632Z,0.50
2023-01-23T13:44:35.769Z,0.40
2023-01-23T14:21:52.136Z,0.40
2023-01-23T14:24:42.583Z,0.40
2023-01-23T14:27:21.636Z,0.30
2023-01-23T14:29:59.811Z,0.40
2023-01-23T14:32:29.810Z,0.30
2023-01-23T14:34:56.895Z,0.30
2023-01-23T14:37:23.821Z,0.30
2023-01-23T14:39:53.804Z,0.30
2023-01-23T14:42:27.878Z,0.30
2023-01-23T14:44:56.450Z,0.30
2023-01-23T14:47:37.922Z,0.30
2023-01-23T14:50:17.862Z,0.30
2023-01-23T14:52:44.952Z,0.40
2023-01-23T14:55:29.921Z,0.40
2023-01-23T14:57:59.591Z,0.40
2023-01-23T15:00:28.195Z,0.30
2023-01-23T15:02:56.347Z,0.30
2023-01-23T15:05:28.848Z,0.30
2023-01-23T15:07:55.991Z,0.30
2023-01-23T15:10:43.139Z,0.30
2023-01-23T15:13:21.036Z,0.30
2023-01-23T15:15:58.445Z,0.30
2023-01-23T15:18:30.446Z,0.20
2023-01-23T15:21:08.403Z,0.20
2023-01-23T15:23:37.647Z,0.20
2023-01-23T15:26:19.401Z,0.20
2023-01-23T15:28:53.524Z,0.10
2023-01-23T15:31:28.088Z,0.10
2023-01-23T15:33:56.116Z,0.10
2023-01-23T15:36:30.856Z,0.10
2023-01-23T15:38:59.275Z,0.10
2023-01-23T15:41:47.752Z,0.10
2023-01-23T15:44:17.073Z,0.10
2023-01-23T15:46:44.072Z,0.10
2023-01-23T15:49:19.914Z,0.10
2023-01-23T15:51:52.017Z,0.10
2023-01-23T15:54:24.257Z,0.10
2023-01-23T15:57:05.561Z,0.10
2023-01-23T15:59:34.317Z,0.10
2023-01-23T16:02:01.135Z,0.10
2023-01-23T16:04:27.849Z,0.00
2023-01-23T16:06:54.678Z,0.00
2023-01-23T16:09:31.364Z,0.10
2023-01-23T16:11:59.840Z,0.10
2023-01-23T16:14:26.925Z,0.00
2023-01-23T16:16:54.390Z,0.00
2023-01-23T16:19:21.281Z,0.00
2023-01-23T16:22:03.220Z,0.00
2023-01-23T16:24:36.484Z,0.00
2023-01-23T16:27:04.239Z,0.00
2023-01-23T16:29:33.244Z,0.00
2023-01-23T16:32:02.353Z,0.00
2023-01-23T16:34:29.299Z,0.00
2023-01-23T16:36:58.843Z,0.00
2023-01-23T16:39:33.440Z,0.00
2023-01-23T16:42:00.164Z,0.00
2023-01-23T16:44:27.254Z,0.00
2023-01-23T16:46:54.012Z,0.00
2023-01-23T16:49:21.342Z,0.00
2023-01-23T16:51:56.380Z,0.00
2023-01-23T16:54:23.644Z,0.00
2023-01-23T16:56:52.674Z,0.00
2023-01-23T16:59:26.354Z,0.00
2023-01-23T17:01:53.609Z,0.10
2023-01-23T17:04:21.510Z,0.00
2023-01-23T17:06:49.195Z,0.10
2023-01-23T17:09:17.309Z,0.10
2023-01-23T17:12:04.330Z,0.00
2023-01-23T17:14:32.414Z,0.10
2023-01-23T17:17:06.070Z,0.10
2023-01-23T17:19:35.551Z,0.10
2023-01-23T17:22:05.763Z,0.10
2023-01-23T17:24:32.638Z,0.10
2023-01-23T17:26:59.366Z,0.10
2023-01-23T17:29:26.222Z,0.10
2023-01-23T17:31:53.234Z,0.00
2023-01-23T17:34:24.985Z,0.00
2023-01-23T17:36:54.363Z,0.00
2023-01-23T17:39:21.475Z,0.00
2023-01-23T17:41:48.253Z,0.00
2023-01-23T17:44:15.021Z,0.00
2023-01-23T17:46:42.475Z,0.00
2023-01-23T17:49:30.138Z,0.00
2023-01-23T17:51:58.996Z,0.00
2023-01-23T17:54:26.425Z,0.00
2023-01-23T17:56:53.584Z,0.00
2023-01-23T17:59:20.526Z,0.00
2023-01-23T18:01:50.147Z,0.00
2023-01-23T18:04:19.825Z,0.00
2023-01-23T18:06:46.976Z,0.00
2023-01-23T18:09:14.202Z,0.00
2023-01-23T18:11:49.685Z,0.00
2023-01-23T18:14:46.912Z,0.00
2023-01-23T18:17:43.756Z,0.00
2023-01-23T18:20:21.964Z,0.00
2023-01-23T18:22:50.369Z,0.00
2023-01-23T18:25:19.286Z,0.00
2023-01-23T18:27:50.288Z,0.00
2023-01-23T18:30:21.011Z,0.00
2023-01-23T18:32:56.529Z,0.00
2023-01-23T18:35:35.535Z,0.00
2023-01-23T18:38:05.164Z,0.00
2023-01-23T18:40:46.877Z,0.00
2023-01-23T18:43:42.374Z,0.00
2023-01-23T18:46:15.499Z,0.00
2023-01-23T18:48:44.032Z,0.00
2023-01-23T18:51:22.610Z,0.00
2023-01-23T18:53:55.607Z,0.00
2023-01-23T18:56:29.679Z,0.00
2023-01-23T18:59:12.807Z,0.00
2023-01-23T19:01:52.124Z,0.00
2023-01-23T19:04:41.037Z,0.00
2023-01-23T19:07:19.289Z,0.00
2023-01-23T19:09:47.073Z,0.00
2023-01-23T19:12:41.004Z,0.00
2023-01-23T19:15:36.368Z,0.00
2023-01-23T19:18:39.050Z,0.00
2023-01-23T19:21:09.440Z,0.00
2023-01-23T19:23:47.630Z,0.00
2023-01-23T19:26:16.163Z,0.00
2023-01-23T19:28:43.392Z,0.00
2023-01-23T19:31:28.389Z,0.00
2023-01-23T19:33:56.245Z,0.00
2023-01-23T19:36:23.971Z,0.00
2023-01-23T19:38:52.506Z,0.00
2023-01-23T19:41:20.327Z,0.00
2023-01-23T19:43:55.074Z,0.00
2023-01-23T19:46:28.313Z,0.00
2023-01-23T19:48:56.023Z,0.00
2023-01-23T19:51:23.835Z,0.00
2023-01-23T19:53:50.480Z,0.00
2023-01-23T19:56:19.995Z,0.00
2023-01-23T19:58:48.001Z,0.00
2023-01-23T20:01:20.063Z,0.00
2023-01-23T20:03:46.842Z,0.00
2023-01-23T20:06:13.659Z,0.00
2023-01-23T20:08:40.332Z,0.00
2023-01-23T20:11:06.968Z,0.00
2023-01-23T20:13:33.626Z,0.00
2023-01-23T20:16:18.477Z,0.00
2023-01-23T20:18:47.992Z,0.00
2023-01-23T20:21:16.229Z,0.00
2023-01-23T20:23:42.951Z,0.00
2023-01-23T20:26:09.854Z,0.00
2023-01-23T20:28:36.978Z,0.00
2023-01-23T20:31:06.059Z,0.00
2023-01-23T20:33:33.740Z,0.00
2023-01-23T20:36:00.548Z,0.00
2023-01-23T20:38:27.649Z,0.00
2023-01-23T20:40:54.360Z,0.00
2023-01-23T20:43:21.084Z,0.00
2023-01-23T20:45:49.380Z,0.00
2023-01-23T20:48:16.686Z,0.00
2023-01-23T20:50:43.979Z,0.00
2023-01-23T20:53:29.877Z,0.00
2023-01-23T20:56:18.637Z,0.00
2023-01-23T20:59:06.234Z,0.00
2023-01-23T21:01:54.973Z,0.00
2023-01-23T21:04:23.788Z,0.00
2023-01-23T21:06:50.804Z,0.00
2023-01-23T21:09:17.951Z,0.00
2023-01-23T21:11:44.853Z,0.00
2023-01-23T21:14:12.765Z,0.10
2023-01-23T21:16:39.744Z,0.10
2023-01-23T21:19:06.429Z,0.00
2023-01-23T21:21:33.180Z,0.00
2023-01-23T21:24:00.209Z,0.10
2023-01-23T21:26:28.328Z,0.10
2023-01-23T21:28:56.603Z,0.10
2023-01-23T21:31:26.229Z,0.10
2023-01-23T21:33:53.633Z,0.10
2023-01-23T21:36:23.948Z,0.10
2023-01-23T21:38:51.627Z,0.10
2023-01-23T21:41:19.078Z,0.10
2023-01-23T21:43:46.512Z,0.10
2023-01-23T21:46:13.316Z,0.10
2023-01-23T21:48:40.035Z,0.10
2023-01-23T21:51:09.332Z,0.10
2023-01-23T21:53:37.512Z,0.10
2023-01-23T21:56:05.364Z,0.10
2023-01-23T21:58:32.570Z,0.10
2023-01-23T22:01:20.012Z,0.10
2023-01-23T22:03:46.837Z,0.10
2023-01-23T22:06:13.674Z,0.10
2023-01-23T22:08:40.667Z,0.10
2023-01-23T22:11:09.574Z,0.10
2023-01-23T22:13:36.633Z,0.20
2023-01-23T22:16:03.845Z,0.10
2023-01-23T22:18:31.329Z,0.20
2023-01-23T22:20:59.946Z,0.10
2023-01-23T22:23:27.223Z,0.10
2023-01-23T22:25:59.592Z,0.10
2023-01-23T22:28:26.554Z,0.20
2023-01-23T22:30:53.444Z,0.20
2023-01-23T22:33:22.386Z,0.20
2023-01-23T22:35:49.153Z,0.20
2023-01-23T22:38:16.589Z,0.20
2023-01-23T22:40:43.416Z,0.20
2023-01-23T22:43:10.382Z,0.20
2023-01-23T22:45:37.267Z,0.20
2023-01-23T22:48:04.105Z,0.20
2023-01-23T22:50:30.788Z,0.20
2023-01-23T22:52:57.497Z,0.20
2023-01-23T22:55:24.346Z,0.20
2023-01-23T22:57:52.933Z,0.20
2023-01-23T23:00:20.195Z,0.20
2023-01-23T23:02:46.943Z,0.20
2023-01-23T23:05:13.776Z,0.20
2023-01-23T23:07:40.709Z,0.20
2023-01-23T23:10:09.262Z,0.20
2023-01-23T23:12:36.078Z,0.20
2023-01-23T23:15:03.497Z,0.20
2023-01-23T23:17:30.528Z,0.20
2023-01-23T23:19:57.189Z,0.20
2023-01-23T23:22:23.903Z,0.20
2023-01-23T23:24:50.557Z,0.20
2023-01-23T23:27:17.233Z,0.20
2023-01-23T23:29:43.894Z,0.20
2023-01-23T23:32:10.596Z,0.20
2023-01-23T23:34:37.487Z,0.20
2023-01-23T23:37:04.370Z,0.20
2023-01-23T23:39:31.048Z,0.20
2023-01-23T23:41:58.487Z,0.20
2023-01-23T23:44:25.276Z,0.20
2023-01-23T23:46:51.949Z,0.20
2023-01-23T23:49:18.647Z,0.20
2023-01-23T23:51:45.334Z,0.20
2023-01-23T23:54:12.147Z,0.20
2023-01-23T23:56:38.951Z,0.20
2023-01-23T23:59:05.604Z,0.20
